sensor_id;sensor_type;location;lat;lon;timestamp;pressure;altitude;pressure_sealevel;temperature;humidity
45872;BME280;32333;55.844;-3.210;2023-06-24T00:01:48;99652.22;;;15.58;100.00
45872;BME280;32333;55.844;-3.210;2023-06-24T00:04:16;99655.80;;;15.06;100.00
45872;BME280;32333;55.844;-3.210;2023-06-24T00:06:44;99649.03;;;16.48;100.00
45872;BME280;32333;55.844;-3.210;2023-06-24T00:09:12;99650.00;;;16.79;100.00
45872;BME280;32333;55.844;-3.210;2023-06-24T00:11:40;99653.56;;;16.04;100.00
45872;BME280;32333;55.844;-3.210;2023-06-24T00:14:34;99644.89;;;16.83;100.00
45872;BME280;32333;55.844;-3.210;2023-06-24T00:17:02;99643.32;;;17.64;100.00
45872;BME280;32333;55.844;-3.210;2023-06-24T00:19:30;99649.26;;;16.79;100.00
45872;BME280;32333;55.844;-3.210;2023-06-24T00:21:58;99650.47;;;16.46;100.00
45872;BME280;32333;55.844;-3.210;2023-06-24T00:24:25;99639.81;;;16.63;100.00
45872;BME280;32333;55.844;-3.210;2023-06-24T00:26:53;99641.37;;;17.08;100.00
45872;BME280;32333;55.844;-3.210;2023-06-24T00:29:21;99643.43;;;17.90;100.00
45872;BME280;32333;55.844;-3.210;2023-06-24T00:31:49;99645.37;;;16.89;100.00
45872;BME280;32333;55.844;-3.210;2023-06-24T00:34:16;99656.48;;;15.57;100.00
45872;BME280;32333;55.844;-3.210;2023-06-24T00:36:44;99657.83;;;16.16;100.00
45872;BME280;32333;55.844;-3.210;2023-06-24T00:39:12;99651.70;;;16.03;100.00
45872;BME280;32333;55.844;-3.210;2023-06-24T00:41:40;99658.06;;;15.28;100.00
45872;BME280;32333;55.844;-3.210;2023-06-24T00:44:35;99653.80;;;16.24;100.00
45872;BME280;32333;55.844;-3.210;2023-06-24T00:47:03;99651.63;;;16.15;100.00
45872;BME280;32333;55.844;-3.210;2023-06-24T00:49:30;99655.85;;;16.38;100.00
45872;BME280;32333;55.844;-3.210;2023-06-24T00:51:58;99657.29;;;16.50;100.00
45872;BME280;32333;55.844;-3.210;2023-06-24T00:54:26;99656.93;;;15.53;100.00
45872;BME280;32333;55.844;-3.210;2023-06-24T00:56:54;99664.19;;;16.49;100.00
45872;BME280;32333;55.844;-3.210;2023-06-24T00:59:21;99662.38;;;16.14;100.00
45872;BME280;32333;55.844;-3.210;2023-06-24T01:01:50;99661.40;;;16.17;100.00
45872;BME280;32333;55.844;-3.210;2023-06-24T01:04:18;99663.44;;;16.34;100.00
45872;BME280;32333;55.844;-3.210;2023-06-24T01:06:46;99658.91;;;15.88;100.00
45872;BME280;32333;55.844;-3.210;2023-06-24T01:09:13;99661.39;;;15.97;100.00
45872;BME280;32333;55.844;-3.210;2023-06-24T01:11:40;99658.10;;;16.42;100.00
45872;BME280;32333;55.844;-3.210;2023-06-24T01:14:35;99649.14;;;17.22;100.00
45872;BME280;32333;55.844;-3.210;2023-06-24T01:17:15;99647.97;;;16.43;100.00
45872;BME280;32333;55.844;-3.210;2023-06-24T01:20:04;99648.56;;;17.03;100.00
45872;BME280;32333;55.844;-3.210;2023-06-24T01:22:57;99648.75;;;16.38;100.00
45872;BME280;32333;55.844;-3.210;2023-06-24T01:25:45;99647.82;;;16.33;100.00
45872;BME280;32333;55.844;-3.210;2023-06-24T01:28:30;99640.45;;;17.10;100.00
45872;BME280;32333;55.844;-3.210;2023-06-24T01:31:29;99646.42;;;16.10;100.00
45872;BME280;32333;55.844;-3.210;2023-06-24T01:34:02;99650.40;;;15.78;100.00
45872;BME280;32333;55.844;-3.210;2023-06-24T01:36:34;99646.71;;;16.28;100.00
45872;BME280;32333;55.844;-3.210;2023-06-24T01:39:06;99646.32;;;16.37;100.00
45872;BME280;32333;55.844;-3.210;2023-06-24T01:41:40;99644.92;;;15.79;100.00
45872;BME280;32333;55.844;-3.210;2023-06-24T01:44:35;99641.11;;;16.07;100.00
45872;BME280;32333;55.844;-3.210;2023-06-24T01:47:05;99644.51;;;15.55;100.00
45872;BME280;32333;55.844;-3.210;2023-06-24T01:49:36;99643.43;;;15.41;100.00
45872;BME280;32333;55.844;-3.210;2023-06-24T01:52:06;99642.78;;;15.51;100.00
45872;BME280;32333;55.844;-3.210;2023-06-24T01:54:35;99650.89;;;16.20;100.00
45872;BME280;32333;55.844;-3.210;2023-06-24T01:57:05;99647.44;;;15.87;100.00
45872;BME280;32333;55.844;-3.210;2023-06-24T01:59:38;99643.20;;;16.33;100.00
45872;BME280;32333;55.844;-3.210;2023-06-24T02:02:07;99642.00;;;15.99;100.00
45872;BME280;32333;55.844;-3.210;2023-06-24T02:04:35;99638.93;;;16.16;100.00
45872;BME280;32333;55.844;-3.210;2023-06-24T02:07:04;99633.44;;;16.05;100.00
45872;BME280;32333;55.844;-3.210;2023-06-24T02:09:33;99627.97;;;16.17;100.00
45872;BME280;32333;55.844;-3.210;2023-06-24T02:14:35;99626.49;;;16.34;100.00
45872;BME280;32333;55.844;-3.210;2023-06-24T02:17:05;99625.78;;;16.39;100.00
45872;BME280;32333;55.844;-3.210;2023-06-24T02:19:34;99629.45;;;15.21;100.00
45872;BME280;32333;55.844;-3.210;2023-06-24T02:22:02;99630.55;;;15.75;100.00
45872;BME280;32333;55.844;-3.210;2023-06-24T02:24:31;99627.35;;;16.78;100.00
45872;BME280;32333;55.844;-3.210;2023-06-24T02:26:59;99625.40;;;16.69;100.00
45872;BME280;32333;55.844;-3.210;2023-06-24T02:29:27;99629.39;;;16.12;100.00
45872;BME280;32333;55.844;-3.210;2023-06-24T02:31:55;99624.38;;;16.57;100.00
45872;BME280;32333;55.844;-3.210;2023-06-24T02:34:23;99626.06;;;16.14;100.00
45872;BME280;32333;55.844;-3.210;2023-06-24T02:36:50;99625.22;;;16.78;100.00
45872;BME280;32333;55.844;-3.210;2023-06-24T02:39:18;99631.29;;;16.86;100.00
45872;BME280;32333;55.844;-3.210;2023-06-24T02:41:46;99640.33;;;16.32;100.00
45872;BME280;32333;55.844;-3.210;2023-06-24T02:44:34;99627.68;;;16.46;100.00
45872;BME280;32333;55.844;-3.210;2023-06-24T02:47:03;99630.54;;;16.07;100.00
45872;BME280;32333;55.844;-3.210;2023-06-24T02:49:31;99633.33;;;16.34;100.00
45872;BME280;32333;55.844;-3.210;2023-06-24T02:51:59;99630.31;;;16.87;100.00
45872;BME280;32333;55.844;-3.210;2023-06-24T02:54:27;99635.10;;;16.39;100.00
45872;BME280;32333;55.844;-3.210;2023-06-24T02:56:55;99634.77;;;16.59;100.00
45872;BME280;32333;55.844;-3.210;2023-06-24T02:59:23;99631.20;;;16.09;100.00
45872;BME280;32333;55.844;-3.210;2023-06-24T03:01:51;99632.86;;;16.29;100.00
45872;BME280;32333;55.844;-3.210;2023-06-24T03:04:19;99633.71;;;16.62;100.00
45872;BME280;32333;55.844;-3.210;2023-06-24T03:06:47;99635.19;;;17.04;100.00
45872;BME280;32333;55.844;-3.210;2023-06-24T03:09:15;99638.15;;;16.58;100.00
45872;BME280;32333;55.844;-3.210;2023-06-24T03:11:44;99638.62;;;16.78;100.00
45872;BME280;32333;55.844;-3.210;2023-06-24T03:14:34;99642.04;;;16.53;100.00
45872;BME280;32333;55.844;-3.210;2023-06-24T03:17:03;99643.04;;;16.09;100.00
45872;BME280;32333;55.844;-3.210;2023-06-24T03:19:30;99639.56;;;16.28;100.00
45872;BME280;32333;55.844;-3.210;2023-06-24T03:21:57;99632.12;;;16.74;100.00
45872;BME280;32333;55.844;-3.210;2023-06-24T03:24:25;99640.65;;;15.40;100.00
45872;BME280;32333;55.844;-3.210;2023-06-24T03:26:53;99637.49;;;16.55;100.00
45872;BME280;32333;55.844;-3.210;2023-06-24T03:29:21;99635.11;;;17.09;100.00
45872;BME280;32333;55.844;-3.210;2023-06-24T03:31:48;99636.11;;;17.07;100.00
45872;BME280;32333;55.844;-3.210;2023-06-24T03:34:16;99637.68;;;16.73;100.00
45872;BME280;32333;55.844;-3.210;2023-06-24T03:36:44;99636.87;;;16.64;100.00
45872;BME280;32333;55.844;-3.210;2023-06-24T03:39:12;99638.17;;;16.87;100.00
45872;BME280;32333;55.844;-3.210;2023-06-24T03:41:39;99639.47;;;16.87;100.00
45872;BME280;32333;55.844;-3.210;2023-06-24T03:44:34;99643.95;;;17.09;100.00
45872;BME280;32333;55.844;-3.210;2023-06-24T03:47:02;99650.17;;;16.01;100.00
45872;BME280;32333;55.844;-3.210;2023-06-24T03:49:30;99651.38;;;16.14;100.00
45872;BME280;32333;55.844;-3.210;2023-06-24T03:51:58;99650.74;;;16.43;100.00
45872;BME280;32333;55.844;-3.210;2023-06-24T03:54:25;99656.23;;;15.84;100.00
45872;BME280;32333;55.844;-3.210;2023-06-24T03:56:53;99657.37;;;16.72;100.00
45872;BME280;32333;55.844;-3.210;2023-06-24T03:59:21;99657.46;;;15.97;100.00
45872;BME280;32333;55.844;-3.210;2023-06-24T04:01:49;99664.29;;;15.75;100.00
45872;BME280;32333;55.844;-3.210;2023-06-24T04:04:16;99670.99;;;15.06;100.00
45872;BME280;32333;55.844;-3.210;2023-06-24T04:06:44;99670.79;;;15.61;100.00
45872;BME280;32333;55.844;-3.210;2023-06-24T04:09:12;99671.17;;;16.45;100.00
45872;BME280;32333;55.844;-3.210;2023-06-24T04:11:40;99674.94;;;16.02;100.00
45872;BME280;32333;55.844;-3.210;2023-06-24T04:14:35;99672.97;;;15.63;100.00
45872;BME280;32333;55.844;-3.210;2023-06-24T04:17:03;99678.44;;;16.38;100.00
45872;BME280;32333;55.844;-3.210;2023-06-24T04:19:30;99677.07;;;16.32;100.00
45872;BME280;32333;55.844;-3.210;2023-06-24T04:21:58;99671.98;;;16.78;100.00
45872;BME280;32333;55.844;-3.210;2023-06-24T04:24:26;99672.37;;;16.84;100.00
45872;BME280;32333;55.844;-3.210;2023-06-24T04:26:53;99676.34;;;16.37;100.00
45872;BME280;32333;55.844;-3.210;2023-06-24T04:29:21;99679.97;;;16.13;100.00
45872;BME280;32333;55.844;-3.210;2023-06-24T04:31:49;99681.17;;;16.53;100.00
45872;BME280;32333;55.844;-3.210;2023-06-24T04:34:17;99682.96;;;16.63;100.00
45872;BME280;32333;55.844;-3.210;2023-06-24T04:36:44;99677.29;;;17.29;100.00
45872;BME280;32333;55.844;-3.210;2023-06-24T04:39:11;99674.98;;;17.82;100.00
45872;BME280;32333;55.844;-3.210;2023-06-24T04:41:38;99679.21;;;17.06;100.00
45872;BME280;32333;55.844;-3.210;2023-06-24T04:44:34;99680.86;;;19.00;100.00
45872;BME280;32333;55.844;-3.210;2023-06-24T04:47:03;99678.22;;;19.51;100.00
45872;BME280;32333;55.844;-3.210;2023-06-24T04:49:30;99680.10;;;18.43;100.00
45872;BME280;32333;55.844;-3.210;2023-06-24T04:52:00;99683.91;;;18.58;100.00
45872;BME280;32333;55.844;-3.210;2023-06-24T04:54:27;99676.82;;;19.02;100.00
45872;BME280;32333;55.844;-3.210;2023-06-24T04:56:55;99684.08;;;19.11;100.00
45872;BME280;32333;55.844;-3.210;2023-06-24T04:59:22;99690.23;;;18.25;100.00
45872;BME280;32333;55.844;-3.210;2023-06-24T05:01:50;99687.04;;;18.88;100.00
45872;BME280;32333;55.844;-3.210;2023-06-24T05:04:18;99685.48;;;18.93;100.00
45872;BME280;32333;55.844;-3.210;2023-06-24T05:06:46;99691.61;;;19.30;100.00
45872;BME280;32333;55.844;-3.210;2023-06-24T05:09:14;99692.91;;;19.53;100.00
45872;BME280;32333;55.844;-3.210;2023-06-24T05:11:42;99692.05;;;19.10;100.00
45872;BME280;32333;55.844;-3.210;2023-06-24T05:14:36;99695.79;;;20.42;100.00
45872;BME280;32333;55.844;-3.210;2023-06-24T05:17:04;99697.24;;;20.65;100.00
45872;BME280;32333;55.844;-3.210;2023-06-24T05:19:31;99691.43;;;20.22;100.00
45872;BME280;32333;55.844;-3.210;2023-06-24T05:21:59;99689.83;;;19.50;100.00
45872;BME280;32333;55.844;-3.210;2023-06-24T05:24:27;99687.54;;;20.38;100.00
45872;BME280;32333;55.844;-3.210;2023-06-24T05:26:54;99685.66;;;20.47;100.00
45872;BME280;32333;55.844;-3.210;2023-06-24T05:29:22;99686.89;;;19.66;100.00
45872;BME280;32333;55.844;-3.210;2023-06-24T05:31:49;99683.90;;;19.59;100.00
45872;BME280;32333;55.844;-3.210;2023-06-24T05:34:17;99681.36;;;20.45;100.00
45872;BME280;32333;55.844;-3.210;2023-06-24T05:36:44;99679.12;;;20.26;100.00
45872;BME280;32333;55.844;-3.210;2023-06-24T05:39:13;99676.11;;;20.14;100.00
45872;BME280;32333;55.844;-3.210;2023-06-24T05:41:40;99675.35;;;20.46;100.00
45872;BME280;32333;55.844;-3.210;2023-06-24T05:44:36;99671.74;;;18.90;100.00
45872;BME280;32333;55.844;-3.210;2023-06-24T05:47:04;99674.73;;;19.05;100.00
45872;BME280;32333;55.844;-3.210;2023-06-24T05:49:31;99676.33;;;19.45;100.00
45872;BME280;32333;55.844;-3.210;2023-06-24T05:51:59;99685.36;;;18.43;100.00
45872;BME280;32333;55.844;-3.210;2023-06-24T05:54:26;99684.98;;;19.15;100.00
45872;BME280;32333;55.844;-3.210;2023-06-24T05:56:53;99683.69;;;19.07;100.00
45872;BME280;32333;55.844;-3.210;2023-06-24T05:59:22;99686.62;;;18.51;100.00
45872;BME280;32333;55.844;-3.210;2023-06-24T06:01:49;99685.71;;;18.34;100.00
45872;BME280;32333;55.844;-3.210;2023-06-24T06:04:16;99688.12;;;18.32;100.00
45872;BME280;32333;55.844;-3.210;2023-06-24T06:06:45;99690.19;;;18.58;100.00
45872;BME280;32333;55.844;-3.210;2023-06-24T06:09:12;99693.55;;;18.58;100.00
45872;BME280;32333;55.844;-3.210;2023-06-24T06:11:39;99699.88;;;18.23;100.00
45872;BME280;32333;55.844;-3.210;2023-06-24T06:14:35;99701.79;;;18.49;100.00
45872;BME280;32333;55.844;-3.210;2023-06-24T06:17:03;99708.29;;;18.27;100.00
45872;BME280;32333;55.844;-3.210;2023-06-24T06:19:31;99708.44;;;17.76;100.00
45872;BME280;32333;55.844;-3.210;2023-06-24T06:21:58;99707.94;;;17.76;100.00
45872;BME280;32333;55.844;-3.210;2023-06-24T06:24:25;99708.85;;;17.77;100.00
45872;BME280;32333;55.844;-3.210;2023-06-24T06:26:52;99706.98;;;17.38;100.00
45872;BME280;32333;55.844;-3.210;2023-06-24T06:29:20;99708.65;;;17.25;100.00
45872;BME280;32333;55.844;-3.210;2023-06-24T06:31:47;99701.84;;;17.06;100.00
45872;BME280;32333;55.844;-3.210;2023-06-24T06:34:14;99700.61;;;17.36;100.00
45872;BME280;32333;55.844;-3.210;2023-06-24T06:36:43;99696.90;;;17.86;100.00
45872;BME280;32333;55.844;-3.210;2023-06-24T06:39:09;99697.88;;;17.31;100.00
45872;BME280;32333;55.844;-3.210;2023-06-24T06:41:37;99701.45;;;18.23;100.00
45872;BME280;32333;55.844;-3.210;2023-06-24T06:44:35;99699.24;;;17.92;100.00
45872;BME280;32333;55.844;-3.210;2023-06-24T06:47:04;99698.34;;;17.35;100.00
45872;BME280;32333;55.844;-3.210;2023-06-24T06:49:31;99705.28;;;18.77;100.00
45872;BME280;32333;55.844;-3.210;2023-06-24T06:51:58;99706.56;;;18.50;100.00
45872;BME280;32333;55.844;-3.210;2023-06-24T06:54:25;99704.06;;;17.16;100.00
45872;BME280;32333;55.844;-3.210;2023-06-24T06:56:52;99707.78;;;18.19;100.00
45872;BME280;32333;55.844;-3.210;2023-06-24T06:59:21;99710.78;;;17.81;100.00
45872;BME280;32333;55.844;-3.210;2023-06-24T07:01:48;99716.15;;;18.46;100.00
45872;BME280;32333;55.844;-3.210;2023-06-24T07:04:15;99717.78;;;17.31;100.00
45872;BME280;32333;55.844;-3.210;2023-06-24T07:06:44;99719.56;;;17.69;100.00
45872;BME280;32333;55.844;-3.210;2023-06-24T07:09:11;99716.10;;;17.88;100.00
45872;BME280;32333;55.844;-3.210;2023-06-24T07:11:38;99721.72;;;17.75;100.00
45872;BME280;32333;55.844;-3.210;2023-06-24T07:14:35;99720.15;;;18.86;100.00
45872;BME280;32333;55.844;-3.210;2023-06-24T07:17:04;99725.27;;;18.51;100.00
45872;BME280;32333;55.844;-3.210;2023-06-24T07:19:31;99723.76;;;18.66;100.00
45872;BME280;32333;55.844;-3.210;2023-06-24T07:21:58;99724.75;;;18.94;100.00
45872;BME280;32333;55.844;-3.210;2023-06-24T07:24:26;99727.15;;;18.54;100.00
45872;BME280;32333;55.844;-3.210;2023-06-24T07:26:53;99728.46;;;19.43;100.00
45872;BME280;32333;55.844;-3.210;2023-06-24T07:29:21;99725.82;;;18.72;100.00
45872;BME280;32333;55.844;-3.210;2023-06-24T07:31:48;99727.82;;;19.62;100.00
45872;BME280;32333;55.844;-3.210;2023-06-24T07:34:16;99732.06;;;19.39;100.00
45872;BME280;32333;55.844;-3.210;2023-06-24T07:36:44;99732.68;;;19.20;100.00
45872;BME280;32333;55.844;-3.210;2023-06-24T07:39:11;99730.96;;;20.04;100.00
45872;BME280;32333;55.844;-3.210;2023-06-24T07:41:38;99729.15;;;19.13;100.00
45872;BME280;32333;55.844;-3.210;2023-06-24T07:44:35;99728.96;;;19.95;100.00
45872;BME280;32333;55.844;-3.210;2023-06-24T07:47:03;99727.18;;;20.31;100.00
45872;BME280;32333;55.844;-3.210;2023-06-24T07:49:30;99726.22;;;20.87;100.00
45872;BME280;32333;55.844;-3.210;2023-06-24T07:51:58;99728.43;;;20.96;100.00
45872;BME280;32333;55.844;-3.210;2023-06-24T07:54:26;99734.37;;;20.71;100.00
45872;BME280;32333;55.844;-3.210;2023-06-24T07:56:53;99738.55;;;20.12;100.00
45872;BME280;32333;55.844;-3.210;2023-06-24T07:59:21;99746.11;;;19.65;100.00
45872;BME280;32333;55.844;-3.210;2023-06-24T08:01:48;99748.10;;;19.40;100.00
45872;BME280;32333;55.844;-3.210;2023-06-24T08:04:16;99744.69;;;19.17;100.00
45872;BME280;32333;55.844;-3.210;2023-06-24T08:06:44;99744.56;;;18.83;100.00
45872;BME280;32333;55.844;-3.210;2023-06-24T08:09:12;99746.23;;;19.58;100.00
45872;BME280;32333;55.844;-3.210;2023-06-24T08:11:39;99746.89;;;18.61;100.00
45872;BME280;32333;55.844;-3.210;2023-06-24T08:14:35;99753.42;;;19.49;100.00
45872;BME280;32333;55.844;-3.210;2023-06-24T08:17:03;99759.82;;;19.30;100.00
45872;BME280;32333;55.844;-3.210;2023-06-24T08:19:31;99754.59;;;19.77;100.00
45872;BME280;32333;55.844;-3.210;2023-06-24T08:21:58;99754.84;;;19.96;100.00
45872;BME280;32333;55.844;-3.210;2023-06-24T08:24:26;99756.01;;;20.07;100.00
45872;BME280;32333;55.844;-3.210;2023-06-24T08:26:53;99755.43;;;19.93;100.00
45872;BME280;32333;55.844;-3.210;2023-06-24T08:29:21;99743.95;;;20.25;100.00
45872;BME280;32333;55.844;-3.210;2023-06-24T08:31:48;99750.02;;;19.88;100.00
45872;BME280;32333;55.844;-3.210;2023-06-24T08:34:15;99754.65;;;20.39;100.00
45872;BME280;32333;55.844;-3.210;2023-06-24T08:36:43;99755.08;;;20.16;100.00
45872;BME280;32333;55.844;-3.210;2023-06-24T08:39:10;99755.95;;;20.70;100.00
45872;BME280;32333;55.844;-3.210;2023-06-24T08:41:38;99756.00;;;20.34;100.00
45872;BME280;32333;55.844;-3.210;2023-06-24T08:44:35;99746.16;;;19.97;100.00
45872;BME280;32333;55.844;-3.210;2023-06-24T08:47:03;99746.21;;;20.84;100.00
45872;BME280;32333;55.844;-3.210;2023-06-24T08:49:31;99741.98;;;21.22;100.00
45872;BME280;32333;55.844;-3.210;2023-06-24T08:52:03;99743.70;;;20.62;100.00
45872;BME280;32333;55.844;-3.210;2023-06-24T08:54:34;99742.01;;;19.96;100.00
45872;BME280;32333;55.844;-3.210;2023-06-24T08:57:03;99740.48;;;20.93;100.00
45872;BME280;32333;55.844;-3.210;2023-06-24T08:59:31;99741.70;;;20.60;100.00
45872;BME280;32333;55.844;-3.210;2023-06-24T09:01:59;99738.97;;;19.73;100.00
45872;BME280;32333;55.844;-3.210;2023-06-24T09:04:26;99748.42;;;20.53;100.00
45872;BME280;32333;55.844;-3.210;2023-06-24T09:06:54;99743.38;;;20.07;100.00
45872;BME280;32333;55.844;-3.210;2023-06-24T09:09:22;99753.71;;;20.41;100.00
45872;BME280;32333;55.844;-3.210;2023-06-24T09:11:54;99760.43;;;21.36;100.00
45872;BME280;32333;55.844;-3.210;2023-06-24T09:14:35;99761.20;;;21.18;100.00
45872;BME280;32333;55.844;-3.210;2023-06-24T09:17:03;99758.33;;;21.63;100.00
45872;BME280;32333;55.844;-3.210;2023-06-24T09:19:31;99760.08;;;21.14;100.00
45872;BME280;32333;55.844;-3.210;2023-06-24T09:22:02;99758.74;;;21.45;100.00
45872;BME280;32333;55.844;-3.210;2023-06-24T09:24:30;99764.59;;;20.38;100.00
45872;BME280;32333;55.844;-3.210;2023-06-24T09:26:58;99756.52;;;20.06;100.00
45872;BME280;32333;55.844;-3.210;2023-06-24T09:29:35;99752.64;;;20.39;100.00
45872;BME280;32333;55.844;-3.210;2023-06-24T09:44:36;99767.18;;;20.87;100.00
45872;BME280;32333;55.844;-3.210;2023-06-24T09:47:11;99772.93;;;21.60;100.00
45872;BME280;32333;55.844;-3.210;2023-06-24T09:49:51;99760.00;;;21.94;100.00
45872;BME280;32333;55.844;-3.210;2023-06-24T09:52:20;99765.24;;;22.10;100.00
45872;BME280;32333;55.844;-3.210;2023-06-24T09:54:58;99761.49;;;22.15;100.00
45872;BME280;32333;55.844;-3.210;2023-06-24T09:57:29;99759.79;;;22.36;100.00
45872;BME280;32333;55.844;-3.210;2023-06-24T10:00:01;99761.81;;;22.53;100.00
45872;BME280;32333;55.844;-3.210;2023-06-24T10:02:29;99766.90;;;22.00;100.00
45872;BME280;32333;55.844;-3.210;2023-06-24T10:05:00;99762.99;;;22.06;100.00
45872;BME280;32333;55.844;-3.210;2023-06-24T10:07:28;99758.71;;;23.20;100.00
45872;BME280;32333;55.844;-3.210;2023-06-24T10:09:57;99755.27;;;22.93;100.00
45872;BME280;32333;55.844;-3.210;2023-06-24T10:14:37;99751.79;;;22.54;100.00
45872;BME280;32333;55.844;-3.210;2023-06-24T10:17:12;99761.50;;;22.38;100.00
45872;BME280;32333;55.844;-3.210;2023-06-24T10:19:41;99759.00;;;22.50;100.00
45872;BME280;32333;55.844;-3.210;2023-06-24T10:22:10;99759.95;;;22.42;100.00
45872;BME280;32333;55.844;-3.210;2023-06-24T10:24:39;99756.54;;;23.58;100.00
45872;BME280;32333;55.844;-3.210;2023-06-24T10:27:08;99755.42;;;24.28;100.00
45872;BME280;32333;55.844;-3.210;2023-06-24T10:29:39;99757.05;;;24.34;100.00
45872;BME280;32333;55.844;-3.210;2023-06-24T10:32:08;99756.61;;;24.27;100.00
45872;BME280;32333;55.844;-3.210;2023-06-24T10:34:40;99757.90;;;23.50;100.00
45872;BME280;32333;55.844;-3.210;2023-06-24T10:37:11;99765.32;;;24.38;100.00
45872;BME280;32333;55.844;-3.210;2023-06-24T10:39:49;99773.53;;;23.35;100.00
45872;BME280;32333;55.844;-3.210;2023-06-24T10:45:31;99785.87;;;23.88;100.00
45872;BME280;32333;55.844;-3.210;2023-06-24T10:48:02;99782.76;;;23.06;100.00
45872;BME280;32333;55.844;-3.210;2023-06-24T10:50:30;99781.99;;;22.12;100.00
45872;BME280;32333;55.844;-3.210;2023-06-24T10:52:58;99781.32;;;22.59;100.00
45872;BME280;32333;55.844;-3.210;2023-06-24T10:55:26;99784.34;;;21.90;100.00
45872;BME280;32333;55.844;-3.210;2023-06-24T10:58:57;99777.94;;;22.52;100.00
45872;BME280;32333;55.844;-3.210;2023-06-24T11:01:26;99785.71;;;22.40;100.00
45872;BME280;32333;55.844;-3.210;2023-06-24T11:03:54;99784.18;;;21.90;100.00
45872;BME280;32333;55.844;-3.210;2023-06-24T11:06:30;99781.39;;;22.26;100.00
45872;BME280;32333;55.844;-3.210;2023-06-24T11:09:02;99775.39;;;22.93;100.00
45872;BME280;32333;55.844;-3.210;2023-06-24T11:11:30;99770.82;;;22.98;100.00
45872;BME280;32333;55.844;-3.210;2023-06-24T11:14:36;99775.49;;;22.88;100.00
45872;BME280;32333;55.844;-3.210;2023-06-24T11:17:04;99776.92;;;22.66;100.00
45872;BME280;32333;55.844;-3.210;2023-06-24T11:19:33;99772.89;;;21.84;100.00
45872;BME280;32333;55.844;-3.210;2023-06-24T11:22:01;99770.41;;;22.81;100.00
45872;BME280;32333;55.844;-3.210;2023-06-24T11:24:29;99767.82;;;23.11;100.00
45872;BME280;32333;55.844;-3.210;2023-06-24T11:26:58;99773.34;;;22.97;100.00
45872;BME280;32333;55.844;-3.210;2023-06-24T11:29:28;99770.00;;;23.74;100.00
45872;BME280;32333;55.844;-3.210;2023-06-24T11:31:56;99770.71;;;24.24;100.00
45872;BME280;32333;55.844;-3.210;2023-06-24T11:34:25;99772.35;;;23.67;100.00
45872;BME280;32333;55.844;-3.210;2023-06-24T11:36:53;99773.92;;;23.20;100.00
45872;BME280;32333;55.844;-3.210;2023-06-24T11:39:32;99776.68;;;23.64;100.00
45872;BME280;32333;55.844;-3.210;2023-06-24T11:42:01;99778.44;;;23.16;100.00
45872;BME280;32333;55.844;-3.210;2023-06-24T11:44:40;99779.19;;;23.52;100.00
45872;BME280;32333;55.844;-3.210;2023-06-24T11:47:09;99782.24;;;23.95;100.00
45872;BME280;32333;55.844;-3.210;2023-06-24T11:49:49;99782.56;;;23.66;100.00
45872;BME280;32333;55.844;-3.210;2023-06-24T11:52:16;99784.74;;;23.83;100.00
45872;BME280;32333;55.844;-3.210;2023-06-24T11:54:44;99783.35;;;23.48;100.00
45872;BME280;32333;55.844;-3.210;2023-06-24T11:57:11;99770.64;;;24.16;100.00
45872;BME280;32333;55.844;-3.210;2023-06-24T11:59:39;99783.50;;;24.14;100.00
45872;BME280;32333;55.844;-3.210;2023-06-24T12:02:07;99779.45;;;23.11;100.00
45872;BME280;32333;55.844;-3.210;2023-06-24T12:04:44;99779.06;;;22.70;100.00
45872;BME280;32333;55.844;-3.210;2023-06-24T12:07:12;99778.70;;;22.24;100.00
45872;BME280;32333;55.844;-3.210;2023-06-24T12:09:40;99778.52;;;22.62;100.00
45872;BME280;32333;55.844;-3.210;2023-06-24T12:14:34;99773.21;;;23.81;100.00
45872;BME280;32333;55.844;-3.210;2023-06-24T12:17:02;99775.77;;;24.15;100.00
45872;BME280;32333;55.844;-3.210;2023-06-24T12:19:30;99781.98;;;23.88;100.00
45872;BME280;32333;55.844;-3.210;2023-06-24T12:22:02;99780.84;;;23.47;100.00
45872;BME280;32333;55.844;-3.210;2023-06-24T12:24:30;99780.55;;;22.64;100.00
45872;BME280;32333;55.844;-3.210;2023-06-24T12:26:59;99775.32;;;22.43;100.00
45872;BME280;32333;55.844;-3.210;2023-06-24T12:29:27;99785.94;;;22.35;100.00
45872;BME280;32333;55.844;-3.210;2023-06-24T12:31:54;99784.26;;;23.24;100.00
45872;BME280;32333;55.844;-3.210;2023-06-24T12:34:22;99781.99;;;23.33;100.00
45872;BME280;32333;55.844;-3.210;2023-06-24T12:36:49;99781.18;;;23.37;100.00
45872;BME280;32333;55.844;-3.210;2023-06-24T12:39:17;99782.96;;;23.75;100.00
45872;BME280;32333;55.844;-3.210;2023-06-24T12:41:45;99783.52;;;22.61;100.00
45872;BME280;32333;55.844;-3.210;2023-06-24T12:44:35;99788.15;;;23.09;100.00
45872;BME280;32333;55.844;-3.210;2023-06-24T12:47:03;99786.88;;;22.43;100.00
45872;BME280;32333;55.844;-3.210;2023-06-24T12:49:31;99784.25;;;22.94;100.00
45872;BME280;32333;55.844;-3.210;2023-06-24T12:51:59;99788.87;;;22.05;100.00
45872;BME280;32333;55.844;-3.210;2023-06-24T12:54:27;99789.37;;;23.56;100.00
45872;BME280;32333;55.844;-3.210;2023-06-24T12:56:54;99791.52;;;23.11;100.00
45872;BME280;32333;55.844;-3.210;2023-06-24T12:59:52;99792.76;;;23.13;100.00
45872;BME280;32333;55.844;-3.210;2023-06-24T13:02:19;99794.30;;;22.81;100.00
45872;BME280;32333;55.844;-3.210;2023-06-24T13:04:47;99801.31;;;22.42;100.00
45872;BME280;32333;55.844;-3.210;2023-06-24T13:07:14;99799.15;;;23.64;100.00
45872;BME280;32333;55.844;-3.210;2023-06-24T13:09:42;99801.71;;;22.97;100.00
45872;BME280;32333;55.844;-3.210;2023-06-24T13:14:35;99795.42;;;22.81;100.00
45872;BME280;32333;55.844;-3.210;2023-06-24T13:17:03;99803.06;;;22.78;100.00
45872;BME280;32333;55.844;-3.210;2023-06-24T13:19:30;99810.29;;;22.40;100.00
45872;BME280;32333;55.844;-3.210;2023-06-24T13:21:58;99803.08;;;22.64;100.00
45872;BME280;32333;55.844;-3.210;2023-06-24T13:24:26;99805.61;;;23.93;100.00